Terminal Aerodrome Forecast
Issued by NWS

Home | Current Version | Previous Version | Text Only | Print | Product List | Glossary On
Versions: 1 2 3 4 5 6 7 8 9 10 11 12 13 14 15 16
088
FTUS45 KRIW 201506 AAA
TAFBPI
TAF AMD
KBPI 201506Z 2015/2112 VRB04KT 1/2SM FZFG OVC002
      TEMPO 2015/2017 2SM BR BKN002
     FM201700 VRB05KT P6SM SCT040
     FM202200 VRB04KT P6SM SCT025 BKN040
     FM210900 VRB04KT P6SM VCSH SCT018 OVC030=

USA.gov is the U.S. government's official web portal to all federal, state and local government web resources and services.